Terminal Aerodrome Forecast
Issued by NWS Twin Cities, MN

Home | Current Version | Previous Version | Text Only | Print | Product List | Glossary Off
Versions: 1 2 3 4 5 6 7 8 9 10 11 12 13 14 15 16 17 18 19 20 21 22 23 24 25 26 27 28 29 30 31 32 33 34 35 36 37

298
FTUS43 KMPX 242339
TAFMSP
TAF
KMSP 242339Z 2500/2606 15010KT P6SM VCSH BKN060 OVC200
     FM250100 27007KT P6SM -SHRA VCTS SCT030 BKN050CB OVC100
      TEMPO 2503/2506 3SM TSRA SCT020 OVC035CB
     FM250600 30006KT 5SM -SHRA BR OVC030
     FM251000 35006KT 5SM -RA BR OVC012
     FM252000 36007KT 6SM -SHRA BR OVC020=

USA.gov is the U.S. government's official web portal to all federal, state and local government web resources and services.